Time;durP1;ratioP1;P1;durP2;ratioP2;P2;SDS_P1;SDS_P2;PMS_P1;PMS_P2;Temp;Humidity;BMP_temperature;BMP_pressure;BME280_temperature;BME280_humidity;BME280_pressure;Samples;Min_cycle;Max_cycle;Signal;HPM_P1;HPM_P2
2023/12/14 00:00:19;;;;;;;;;3.75;2.00;;;;;9.60;77.44;100459.72;4943011;28;72153;-64
2023/12/14 00:02:44;;;;;;;;;3.00;3.00;;;;;9.60;77.23;100459.72;4938513;28;45492;-65
2023/12/14 00:05:10;;;;;;;;;4.50;3.00;;;;;9.64;77.14;100475.25;4941671;28;45535;-64
2023/12/14 00:07:35;;;;;;;;;3.00;3.00;;;;;9.63;76.98;100468.31;4955459;28;45692;-63
2023/12/14 00:10:01;;;;;;;;;2.75;1.75;;;;;9.69;76.79;100475.97;4939807;28;45527;-63
2023/12/14 00:12:26;;;;;;;;;3.50;1.75;;;;;9.67;76.60;100482.16;4941560;28;45373;-65
2023/12/14 00:14:51;;;;;;;;;2.00;1.00;;;;;9.70;76.47;100489.88;4942228;28;63819;-64
2023/12/14 00:17:17;;;;;;;;;3.50;1.00;;;;;9.68;76.45;100495.19;4940169;28;61884;-63
2023/12/14 00:19:42;;;;;;;;;2.00;2.00;;;;;9.67;76.20;100503.06;4943617;28;64873;-64
2023/12/14 00:22:08;;;;;;;;;4.00;2.00;;;;;9.64;76.32;100497.91;4945897;28;45408;-64
2023/12/14 00:24:33;;;;;;;;;1.50;1.00;;;;;9.65;76.10;100515.28;4945383;28;55637;-64
2023/12/14 00:26:58;;;;;;;;;2.75;2.25;;;;;9.63;75.98;100520.56;4937623;28;71773;-64
2023/12/14 00:29:24;;;;;;;;;0.00;0.00;;;;;9.64;76.24;100517.03;4939477;28;74778;-65
2023/12/14 00:31:49;;;;;;;;;1.50;1.00;;;;;9.63;75.87;100517.06;4944100;28;45330;-63
2023/12/14 00:34:14;;;;;;;;;3.00;2.00;;;;;9.63;76.09;100523.19;4939766;28;63539;-65
2023/12/14 00:36:40;;;;;;;;;4.00;2.00;;;;;9.62;76.05;100533.66;4938797;28;68747;-64
2023/12/14 00:39:05;;;;;;;;;1.75;1.75;;;;;9.59;75.60;100533.75;4956291;28;46170;-63
2023/12/14 00:41:30;;;;;;;;;3.00;2.00;;;;;9.59;75.81;100537.19;4939240;28;45501;-64
2023/12/14 00:43:56;;;;;;;;;0.50;0.50;;;;;9.61;75.99;100542.41;4942497;28;47208;-64
2023/12/14 00:46:21;;;;;;;;;1.00;1.00;;;;;9.61;75.98;100552.84;4937747;28;67861;-64
2023/12/14 00:48:46;;;;;;;;;2.75;2.00;;;;;9.60;76.20;100552.00;4942674;28;50840;-64
2023/12/14 00:51:12;;;;;;;;;2.00;2.00;;;;;9.59;75.98;100558.09;4939415;28;63506;-64
2023/12/14 00:53:37;;;;;;;;;2.00;1.00;;;;;9.54;75.90;100566.97;4943700;28;45326;-65
2023/12/14 00:56:02;;;;;;;;;2.25;1.25;;;;;9.50;76.00;100566.19;4943877;28;56496;-64
2023/12/14 00:58:28;;;;;;;;;2.00;0.25;;;;;9.48;76.42;100578.44;4941285;28;45969;-64
2023/12/14 01:00:54;;;;;;;;;1.25;0.00;;;;;9.43;76.50;100575.91;4947483;28;73040;-64
2023/12/14 01:03:20;;;;;;;;;3.00;1.75;;;;;9.44;76.49;100582.03;4938501;28;45513;-64
2023/12/14 01:05:45;;;;;;;;;1.00;0.00;;;;;9.42;76.81;100597.72;4936125;28;45552;-63
2023/12/14 01:08:10;;;;;;;;;2.00;1.50;;;;;9.38;76.69;100590.84;4937729;28;69848;-64
2023/12/14 01:10:36;;;;;;;;;0.50;0.00;;;;;9.36;76.80;100594.41;4955479;28;45429;-65
2023/12/14 01:13:01;;;;;;;;;1.00;1.00;;;;;9.31;77.07;100600.59;4940200;28;45514;-64
2023/12/14 01:15:26;;;;;;;;;3.25;2.00;;;;;9.24;77.13;100595.53;4941843;28;45472;-65
2023/12/14 01:17:52;;;;;;;;;0.75;0.25;;;;;9.18;77.29;100607.00;4940025;28;74142;-63
2023/12/14 01:20:17;;;;;;;;;0.00;0.00;;;;;9.16;77.57;100610.56;4941611;28;75322;-64
2023/12/14 01:22:43;;;;;;;;;4.50;1.00;;;;;9.12;77.69;100604.53;4937007;28;45456;-63
2023/12/14 01:25:08;;;;;;;;;2.75;1.75;;;;;9.10;77.82;100607.19;4943432;28;46010;-63
2023/12/14 01:27:33;;;;;;;;;2.50;1.00;;;;;9.10;77.70;100612.41;4942341;28;73942;-64
2023/12/14 01:29:58;;;;;;;;;1.00;1.00;;;;;9.12;77.76;100620.22;4946909;28;73187;-64
2023/12/14 01:32:24;;;;;;;;;0.25;0.25;;;;;9.11;77.94;100629.75;4944932;28;67375;-64
2023/12/14 01:34:49;;;;;;;;;1.25;0.25;;;;;9.09;78.15;100626.34;4946745;28;67418;-64
2023/12/14 01:37:14;;;;;;;;;0.00;0.00;;;;;9.10;77.94;100632.41;4946784;28;45987;-64
2023/12/14 01:39:40;;;;;;;;;1.00;1.00;;;;;9.11;77.97;100641.97;4945233;28;45592;-63
2023/12/14 01:42:05;;;;;;;;;2.00;0.00;;;;;9.07;77.91;100649.00;4939198;28;49219;-64
2023/12/14 01:44:30;;;;;;;;;2.50;0.50;;;;;9.05;78.04;100649.94;4941859;28;45306;-64
2023/12/14 01:46:56;;;;;;;;;0.00;0.00;;;;;9.04;78.13;100662.13;4947120;28;73209;-64
2023/12/14 01:49:21;;;;;;;;;0.00;0.00;;;;;9.04;78.19;100667.34;4952892;28;67716;-64
2023/12/14 01:51:46;;;;;;;;;0.00;0.00;;;;;9.04;77.98;100664.72;4944463;28;66425;-64
2023/12/14 01:54:12;;;;;;;;;1.50;0.00;;;;;9.04;78.30;100667.34;4943773;28;63715;-64
2023/12/14 01:56:37;;;;;;;;;1.00;1.00;;;;;9.05;78.00;100674.28;4945440;28;45520;-64
2023/12/14 01:59:02;;;;;;;;;1.00;1.00;;;;;9.07;78.22;100682.94;4948891;28;62895;-63
2023/12/14 02:01:45;;;;;;;;;1.00;1.00;;;;;9.04;78.28;100688.22;4947744;28;62857;-64
2023/12/14 02:04:11;;;;;;;;;1.00;0.00;;;;;9.02;78.44;100697.84;4946422;28;45469;-64
2023/12/14 02:06:37;;;;;;;;;1.00;0.00;;;;;9.00;78.79;100702.25;4943622;28;46169;-64
2023/12/14 02:09:03;;;;;;;;;1.00;1.00;;;;;8.98;78.76;100710.97;4920694;28;45396;-64
2023/12/14 02:11:28;;;;;;;;;1.75;1.00;;;;;8.95;79.16;100721.50;4943734;28;45503;-64
2023/12/14 02:13:53;;;;;;;;;0.00;0.00;;;;;8.90;79.33;100713.75;4945058;28;73134;-65
2023/12/14 02:16:19;;;;;;;;;0.00;0.00;;;;;8.89;79.45;100717.28;4943994;28;75368;-65
2023/12/14 02:18:45;;;;;;;;;1.00;1.00;;;;;8.88;79.79;100726.84;4945716;28;71536;-64
2023/12/14 02:21:10;;;;;;;;;1.00;1.00;;;;;8.89;79.40;100728.56;4948316;28;45578;-65
2023/12/14 02:23:35;;;;;;;;;0.00;0.00;;;;;8.92;79.90;100720.69;4940529;28;70710;-64
2023/12/14 02:26:01;;;;;;;;;2.50;1.00;;;;;8.94;79.79;100736.28;4943559;28;63737;-63
2023/12/14 02:28:26;;;;;;;;;2.00;2.00;;;;;8.97;79.68;100735.38;4947897;28;72158;-64
2023/12/14 02:30:51;;;;;;;;;2.00;1.00;;;;;8.98;79.71;100739.69;4945385;28;59906;-63
2023/12/14 02:33:17;;;;;;;;;4.50;1.00;;;;;8.99;79.24;100751.88;4944275;28;45444;-63
2023/12/14 02:35:43;;;;;;;;;1.00;1.00;;;;;8.97;79.39;100743.22;4942525;28;74292;-64
2023/12/14 02:38:08;;;;;;;;;2.25;1.00;;;;;8.97;79.29;100758.88;4944556;28;45492;-64
2023/12/14 02:40:33;;;;;;;;;0.00;0.00;;;;;8.98;79.36;100753.63;4941085;28;45750;-64
2023/12/14 02:42:59;;;;;;;;;1.00;1.00;;;;;8.97;79.44;100764.94;4947209;28;72687;-63
2023/12/14 02:45:24;;;;;;;;;2.00;0.75;;;;;8.96;79.27;100771.06;4941593;28;72350;-63
2023/12/14 02:47:51;;;;;;;;;0.00;0.00;;;;;8.99;79.15;100777.97;4939646;28;73304;-63
2023/12/14 02:50:17;;;;;;;;;1.00;1.00;;;;;9.00;79.13;100764.03;4947713;28;45344;-64
2023/12/14 02:52:42;;;;;;;;;0.00;0.00;;;;;8.99;79.21;100772.75;4943604;28;71579;-65
2023/12/14 02:55:08;;;;;;;;;1.00;0.00;;;;;9.03;79.13;100777.88;4953603;28;74835;-64
2023/12/14 02:57:33;;;;;;;;;2.75;1.00;;;;;9.03;79.16;100777.88;4938553;28;47155;-64
2023/12/14 02:59:58;;;;;;;;;0.00;0.00;;;;;9.04;79.11;100778.75;4960047;28;66985;-64
2023/12/14 03:02:23;;;;;;;;;1.00;0.00;;;;;9.06;79.00;100775.19;4947934;28;45602;-63
2023/12/14 03:04:49;;;;;;;;;3.25;1.00;;;;;9.09;79.25;100772.53;4941292;28;74223;-64
2023/12/14 03:07:14;;;;;;;;;1.00;1.00;;;;;9.14;79.14;100777.66;4941427;28;72056;-63
2023/12/14 03:09:44;;;;;;;;;2.00;1.00;;;;;9.18;78.98;100792.38;4941832;28;45581;-63
2023/12/14 03:12:10;;;;;;;;;0.75;0.75;;;;;9.23;78.67;100792.28;4951616;28;45299;-63
2023/12/14 03:14:35;;;;;;;;;2.00;1.00;;;;;9.23;78.71;100792.28;4952375;28;46106;-63
2023/12/14 03:17:01;;;;;;;;;1.00;1.00;;;;;9.24;78.50;100800.09;4956017;28;45468;-63
2023/12/14 03:19:26;;;;;;;;;2.00;0.00;;;;;9.27;78.69;100809.59;4940342;28;69441;-64
2023/12/14 03:21:52;;;;;;;;;0.00;0.00;;;;;9.26;78.67;100813.09;4942307;28;48138;-63
2023/12/14 03:24:17;;;;;;;;;0.00;0.00;;;;;9.25;78.26;100820.06;4944965;28;45535;-62
2023/12/14 03:26:43;;;;;;;;;1.75;0.25;;;;;9.24;78.48;100821.00;4939016;28;45460;-63
2023/12/14 03:29:08;;;;;;;;;0.50;0.50;;;;;9.23;78.20;100826.22;4942381;28;66908;-63
2023/12/14 03:31:34;;;;;;;;;1.00;0.25;;;;;9.18;78.40;100828.94;4944265;28;73231;-63
2023/12/14 03:33:59;;;;;;;;;0.00;0.00;;;;;9.15;78.42;100831.59;4943547;28;47135;-63
2023/12/14 03:36:26;;;;;;;;;2.00;0.00;;;;;9.15;78.20;100843.78;4942406;28;55040;-63
2023/12/14 03:38:51;;;;;;;;;1.25;0.75;;;;;9.10;78.12;100844.75;4942746;28;45562;-64
2023/12/14 03:41:17;;;;;;;;;0.50;0.00;;;;;9.10;78.55;100849.09;4940497;28;45517;-63
2023/12/14 03:43:42;;;;;;;;;1.00;1.00;;;;;9.07;78.66;100851.78;4939427;28;74411;-64
2023/12/14 03:46:07;;;;;;;;;1.00;1.00;;;;;9.05;78.54;100857.03;4940464;28;45467;-64
2023/12/14 03:48:33;;;;;;;;;2.75;1.00;;;;;9.04;78.61;100857.06;4940738;28;45319;-64
2023/12/14 03:51:03;;;;;;;;;3.00;2.00;;;;;9.04;78.80;100867.50;4941590;28;45445;-63
2023/12/14 03:53:28;;;;;;;;;1.75;1.00;;;;;9.05;78.93;100869.22;4936932;28;45514;-63
2023/12/14 03:55:54;;;;;;;;;4.00;1.50;;;;;9.06;78.90;100884.84;4941219;28;45427;-64
2023/12/14 03:58:19;;;;;;;;;1.75;1.75;;;;;9.08;78.92;100880.47;4924183;28;45431;-63
2023/12/14 04:00:45;;;;;;;;;1.50;1.25;;;;;9.11;79.14;100883.00;4945292;28;71766;-64
2023/12/14 04:03:10;;;;;;;;;2.00;1.00;;;;;9.13;79.09;100889.06;4945397;28;45222;-64
2023/12/14 04:05:35;;;;;;;;;2.00;2.00;;;;;9.16;78.75;100892.53;4939433;28;71075;-64
2023/12/14 04:08:01;;;;;;;;;1.25;1.25;;;;;9.16;78.75;100898.59;4932577;28;69216;-63
2023/12/14 04:10:26;;;;;;;;;2.50;2.00;;;;;9.13;78.69;100899.50;4942057;28;72166;-64
2023/12/14 04:12:51;;;;;;;;;1.50;1.00;;;;;9.15;78.39;100901.22;4940727;28;75665;-64
2023/12/14 04:15:17;;;;;;;;;2.00;1.00;;;;;9.16;78.72;100913.41;4940757;28;65733;-64
2023/12/14 04:17:42;;;;;;;;;1.00;1.00;;;;;9.14;78.39;100918.66;4943683;28;45315;-64
2023/12/14 04:20:08;;;;;;;;;0.25;0.00;;;;;9.15;78.52;100915.13;4938027;28;68418;-64
2023/12/14 04:22:33;;;;;;;;;1.25;1.25;;;;;9.15;78.70;100925.59;4943253;28;47927;-63
2023/12/14 04:24:59;;;;;;;;;3.50;3.00;;;;;9.16;78.71;100929.94;4938244;28;45244;-64
2023/12/14 04:27:28;;;;;;;;;2.00;1.00;;;;;9.16;78.55;100937.75;4944518;28;64839;-64
2023/12/14 04:29:53;;;;;;;;;5.25;3.00;;;;;9.17;78.42;100942.09;4947604;28;45393;-64
2023/12/14 04:32:18;;;;;;;;;2.50;1.75;;;;;9.16;78.47;100949.97;4941173;28;46202;-65
2023/12/14 04:34:44;;;;;;;;;4.00;2.75;;;;;9.15;78.40;100956.06;4946037;28;71243;-63
2023/12/14 04:37:09;;;;;;;;;5.50;4.00;;;;;9.16;78.39;100957.78;4943742;28;63195;-62
2023/12/14 04:39:34;;;;;;;;;3.25;2.75;;;;;9.13;78.23;100964.78;4953937;28;62393;-63
2023/12/14 04:42:00;;;;;;;;;2.00;2.00;;;;;9.15;78.48;100979.56;4944625;28;75391;-63
2023/12/14 04:44:25;;;;;;;;;4.25;4.00;;;;;9.18;78.44;100975.16;4940417;28;65018;-63
2023/12/14 04:46:50;;;;;;;;;4.75;3.00;;;;;9.23;78.48;100982.91;4940489;28;61790;-63
2023/12/14 04:49:16;;;;;;;;;5.00;4.00;;;;;9.25;78.00;100983.75;4939598;28;67438;-63
2023/12/14 04:51:41;;;;;;;;;8.25;5.75;;;;;9.26;78.09;101009.84;4944994;28;47052;-63
2023/12/14 04:54:07;;;;;;;;;5.00;3.50;;;;;9.27;77.99;101008.06;4937854;28;71055;-63
2023/12/14 04:56:32;;;;;;;;;5.25;3.00;;;;;9.28;78.00;101012.41;4941372;28;68554;-63
2023/12/14 04:58:58;;;;;;;;;5.50;3.50;;;;;9.29;77.83;101021.97;4947588;28;63051;-63
2023/12/14 05:01:24;;;;;;;;;4.75;2.00;;;;;9.29;78.22;101020.19;4938018;28;45391;-63
2023/12/14 05:03:49;;;;;;;;;3.25;3.25;;;;;9.30;77.83;101024.56;4944228;28;45223;-64
2023/12/14 05:06:14;;;;;;;;;5.00;2.75;;;;;9.28;77.57;101025.47;4939570;28;67889;-63
2023/12/14 05:08:39;;;;;;;;;7.50;5.00;;;;;9.24;77.66;101027.28;4940156;28;56209;-64
2023/12/14 05:11:05;;;;;;;;;4.00;2.25;;;;;9.25;77.70;101036.81;4938314;28;71651;-63
2023/12/14 05:13:30;;;;;;;;;5.00;3.00;;;;;9.25;77.75;101041.19;4940386;28;45523;-63
2023/12/14 05:15:57;;;;;;;;;6.00;4.75;;;;;9.24;77.65;101045.56;4942947;28;45468;-64
2023/12/14 05:18:23;;;;;;;;;5.00;3.00;;;;;9.22;77.58;101049.91;4943543;28;45445;-63
2023/12/14 05:20:48;;;;;;;;;6.25;4.00;;;;;9.22;77.68;101059.50;4945863;28;46553;-62
2023/12/14 05:23:14;;;;;;;;;8.25;3.00;;;;;9.21;77.57;101063.88;4937203;28;45620;-62
2023/12/14 05:25:39;;;;;;;;;5.50;4.00;;;;;9.20;77.48;101064.75;4943375;28;45462;-67
2023/12/14 05:28:05;;;;;;;;;7.00;4.00;;;;;9.21;77.71;101071.72;4935480;28;56543;-66
2023/12/14 05:30:30;;;;;;;;;8.25;3.25;;;;;9.22;77.53;101081.25;4934001;28;58004;-66
2023/12/14 05:32:55;;;;;;;;;4.75;3.00;;;;;9.22;77.54;101075.19;4938094;28;53110;-68
2023/12/14 05:35:21;;;;;;;;;9.00;4.00;;;;;9.23;77.29;101085.59;4938743;28;45501;-67
2023/12/14 05:37:46;;;;;;;;;4.50;2.75;;;;;9.23;77.35;101084.75;4944378;28;45363;-67
2023/12/14 05:40:12;;;;;;;;;2.25;2.00;;;;;9.24;77.23;101089.06;4946637;28;45788;-69
2023/12/14 05:42:37;;;;;;;;;8.75;4.50;;;;;9.26;77.17;101088.19;4939919;28;45326;-68
2023/12/14 05:45:04;;;;;;;;;6.00;4.75;;;;;9.29;77.37;101097.69;4943778;28;45586;-68
2023/12/14 05:47:30;;;;;;;;;4.00;2.00;;;;;9.32;77.06;101105.50;4940594;28;45474;-68
2023/12/14 05:49:55;;;;;;;;;4.50;3.75;;;;;9.34;77.27;101102.88;4939782;28;45567;-65
2023/12/14 05:52:21;;;;;;;;;4.00;4.00;;;;;9.35;77.26;101097.63;4940605;28;45551;-64
2023/12/14 05:54:46;;;;;;;;;5.75;4.75;;;;;9.35;77.07;101100.22;4939657;28;56784;-64
2023/12/14 05:57:12;;;;;;;;;9.25;5.00;;;;;9.37;77.13;101102.81;4938844;28;62300;-64
2023/12/14 05:59:38;;;;;;;;;4.00;3.75;;;;;9.37;77.01;101108.91;4940052;28;46339;-64
2023/12/14 06:02:04;;;;;;;;;3.25;3.00;;;;;9.40;77.41;101111.47;4946193;28;45542;-64
2023/12/14 06:04:30;;;;;;;;;4.50;3.25;;;;;9.46;76.94;101121.81;4944221;28;45481;-64
2023/12/14 06:06:55;;;;;;;;;4.75;4.25;;;;;9.47;76.95;101117.44;4945207;28;45455;-64
2023/12/14 06:09:24;;;;;;;;;9.25;4.00;;;;;9.48;77.03;101124.41;4940491;28;68594;-65
2023/12/14 06:11:51;;;;;;;;;5.50;4.00;;;;;9.51;77.00;101132.19;4941274;28;45542;-63
2023/12/14 06:14:16;;;;;;;;;5.50;4.00;;;;;9.50;76.77;101136.53;4938208;28;45592;-64
2023/12/14 06:16:41;;;;;;;;;8.75;6.25;;;;;9.46;76.49;101147.06;4936373;28;45553;-64
2023/12/14 06:19:07;;;;;;;;;7.00;3.50;;;;;9.44;76.30;101154.06;4949020;28;74581;-64
2023/12/14 06:21:33;;;;;;;;;9.75;4.00;;;;;9.42;76.36;101158.44;4945871;28;60061;-64
2023/12/14 06:23:59;;;;;;;;;5.00;3.00;;;;;9.40;76.27;101176.78;4947592;28;45476;-64
2023/12/14 06:26:25;;;;;;;;;5.75;4.00;;;;;9.39;76.22;101168.94;4947511;28;45604;-65
2023/12/14 06:28:50;;;;;;;;;4.75;4.50;;;;;9.39;76.70;101177.66;4943515;28;46087;-64
2023/12/14 06:31:16;;;;;;;;;5.00;3.00;;;;;9.44;76.84;101182.81;4950854;28;49280;-65
2023/12/14 06:33:42;;;;;;;;;6.50;3.50;;;;;9.47;76.54;101186.25;4952894;28;45462;-64
2023/12/14 06:36:10;;;;;;;;;4.50;3.50;;;;;9.49;76.25;101197.53;4949725;28;45720;-65
2023/12/14 06:38:40;;;;;;;;;5.00;2.75;;;;;9.45;75.92;101203.66;4951411;28;45572;-65
2023/12/14 06:41:05;;;;;;;;;6.00;4.00;;;;;9.42;75.96;101206.34;4950399;28;45449;-65
2023/12/14 06:43:31;;;;;;;;;6.25;3.25;;;;;9.38;75.97;101211.63;4951929;28;45396;-64
2023/12/14 06:45:56;;;;;;;;;2.25;2.00;;;;;9.36;75.97;101216.88;4938901;28;71918;-65
2023/12/14 06:48:21;;;;;;;;;3.00;1.00;;;;;9.30;75.76;101228.25;4942271;28;72583;-65
2023/12/14 06:50:47;;;;;;;;;4.50;3.00;;;;;9.28;75.84;101230.03;4943116;28;61225;-64
2023/12/14 06:53:12;;;;;;;;;6.00;3.00;;;;;9.27;75.80;101245.72;4951023;28;64493;-65
2023/12/14 06:55:37;;;;;;;;;14.00;4.00;;;;;9.26;75.96;101243.97;4942310;28;45562;-64
2023/12/14 06:58:03;;;;;;;;;5.00;3.00;;;;;9.26;75.91;101254.44;4944773;28;75552;-65
2023/12/14 07:00:29;;;;;;;;;5.25;2.75;;;;;9.28;76.17;101264.00;4948761;28;45492;-65
2023/12/14 07:02:54;;;;;;;;;3.50;2.00;;;;;9.30;75.83;101267.44;4952736;28;45362;-65
2023/12/14 07:05:20;;;;;;;;;3.25;2.50;;;;;9.31;75.95;101269.19;4944603;28;45539;-65
2023/12/14 07:07:45;;;;;;;;;4.50;1.00;;;;;9.33;76.06;101277.00;4947379;28;71887;-64
2023/12/14 07:10:10;;;;;;;;;7.25;4.00;;;;;9.34;75.89;101272.63;4944453;28;45494;-64
2023/12/14 07:12:36;;;;;;;;;4.00;3.00;;;;;9.36;75.95;101282.16;4947587;28;58040;-65
2023/12/14 07:15:01;;;;;;;;;3.00;3.00;;;;;9.38;75.90;101290.84;4940518;28;45332;-66
2023/12/14 07:17:26;;;;;;;;;6.00;3.00;;;;;9.42;76.09;101286.44;4944054;28;74604;-66
2023/12/14 07:19:53;;;;;;;;;6.00;4.00;;;;;9.47;76.02;101300.31;4947062;28;45407;-65
2023/12/14 07:22:18;;;;;;;;;4.50;3.50;;;;;9.49;75.89;101308.97;4939960;28;45965;-65
2023/12/14 07:24:44;;;;;;;;;10.75;7.75;;;;;9.48;75.78;101302.91;4933956;28;73114;-65
2023/12/14 07:27:09;;;;;;;;;3.00;2.25;;;;;9.49;75.92;101307.25;4942161;28;74569;-65
2023/12/14 07:29:34;;;;;;;;;7.00;5.25;;;;;9.52;76.10;101310.72;4944044;28;73191;-65
2023/12/14 07:32:00;;;;;;;;;4.00;3.00;;;;;9.53;75.73;101320.28;4947205;28;67538;-65
2023/12/14 07:34:27;;;;;;;;;4.00;3.25;;;;;9.47;75.45;101321.22;4942217;28;72110;-63
2023/12/14 07:36:53;;;;;;;;;3.50;2.75;;;;;9.43;75.83;101327.38;4939114;28;45378;-64
2023/12/14 07:39:18;;;;;;;;;5.00;3.00;;;;;9.43;75.82;101336.06;4934437;28;46419;-65
2023/12/14 07:41:44;;;;;;;;;5.25;3.00;;;;;9.48;76.12;101351.69;4939668;28;45439;-64
2023/12/14 07:44:09;;;;;;;;;3.75;2.25;;;;;9.48;75.95;101351.69;4940930;28;71186;-64
2023/12/14 07:46:35;;;;;;;;;6.00;2.00;;;;;9.50;75.62;101360.38;4940098;28;73292;-64
2023/12/14 07:49:00;;;;;;;;;4.00;2.00;;;;;9.49;75.45;101364.72;4942393;28;45343;-65
2023/12/14 07:51:25;;;;;;;;;3.00;2.00;;;;;9.49;75.43;101369.97;4941345;28;68124;-66
2023/12/14 07:53:50;;;;;;;;;9.50;5.00;;;;;9.48;75.17;101372.59;4940966;28;45569;-64
2023/12/14 07:56:16;;;;;;;;;4.00;2.00;;;;;9.49;75.34;101383.03;4936786;28;72180;-65
2023/12/14 07:58:41;;;;;;;;;9.25;3.00;;;;;9.47;75.10;101381.28;4941550;28;49788;-65
2023/12/14 08:01:06;;;;;;;;;6.25;3.00;;;;;9.48;75.31;101390.88;4939283;28;70713;-65
2023/12/14 08:03:32;;;;;;;;;3.00;2.00;;;;;9.47;75.13;101394.34;4941947;28;45529;-65
2023/12/14 08:05:57;;;;;;;;;3.25;3.00;;;;;9.49;75.32;101403.03;4947752;28;45394;-65
2023/12/14 08:08:23;;;;;;;;;5.75;3.25;;;;;9.49;75.06;101403.03;4941797;28;45530;-65
2023/12/14 08:10:48;;;;;;;;;5.50;4.00;;;;;9.48;75.08;101411.78;4942715;28;45311;-66
2023/12/14 08:13:14;;;;;;;;;6.25;5.25;;;;;9.45;75.61;101410.03;4942997;28;69332;-66
2023/12/14 08:15:40;;;;;;;;;6.50;3.75;;;;;9.42;75.30;101425.78;4940034;28;45379;-66
2023/12/14 08:18:05;;;;;;;;;9.25;4.00;;;;;9.39;75.31;101431.03;4941064;28;45577;-66
2023/12/14 08:20:31;;;;;;;;;3.75;3.25;;;;;9.35;75.67;101425.84;4939394;28;45393;-66
2023/12/14 08:22:57;;;;;;;;;4.00;3.00;;;;;9.34;75.60;101431.97;4945782;28;45533;-66
2023/12/14 08:25:22;;;;;;;;;9.25;5.00;;;;;9.34;75.93;101438.03;4946759;28;46155;-67
2023/12/14 08:27:47;;;;;;;;;4.25;2.75;;;;;9.35;76.40;101438.91;4945334;28;45322;-65
2023/12/14 08:30:13;;;;;;;;;5.25;4.25;;;;;9.30;75.85;101445.06;4950347;28;45490;-68
2023/12/14 08:32:38;;;;;;;;;3.75;2.75;;;;;9.29;75.54;101451.13;4936597;28;45927;-66
2023/12/14 08:35:04;;;;;;;;;6.00;4.25;;;;;9.22;75.64;101453.84;4944476;28;74024;-67
2023/12/14 08:37:29;;;;;;;;;10.00;4.50;;;;;9.17;75.38;101459.13;4945012;28;45706;-68
2023/12/14 08:39:55;;;;;;;;;4.50;4.50;;;;;9.15;75.47;101478.28;4940596;28;63711;-63
2023/12/14 08:42:21;;;;;;;;;4.25;3.00;;;;;9.12;75.10;101469.59;4941366;28;45634;-67
2023/12/14 08:44:46;;;;;;;;;7.25;3.00;;;;;9.06;74.87;101477.47;4940395;28;46282;-67
2023/12/14 08:47:11;;;;;;;;;4.75;3.75;;;;;9.07;75.07;101488.81;4939003;28;73172;-66
2023/12/14 08:49:36;;;;;;;;;5.00;4.00;;;;;9.06;74.63;101492.28;4938546;28;68518;-68
2023/12/14 08:52:04;;;;;;;;;11.50;5.75;;;;;9.06;74.58;101494.91;4941739;28;45373;-69
2023/12/14 08:54:29;;;;;;;;;6.50;2.50;;;;;9.08;74.68;101490.53;4939750;28;46120;-68
2023/12/14 08:56:54;;;;;;;;;5.25;4.50;;;;;9.07;74.07;101500.09;4935076;28;45441;-67
2023/12/14 08:59:20;;;;;;;;;5.50;3.00;;;;;9.06;74.34;101502.72;4939178;28;68389;-67
2023/12/14 09:01:45;;;;;;;;;5.00;3.50;;;;;9.06;74.23;101503.59;4945071;28;66995;-70
2023/12/14 09:04:10;;;;;;;;;9.00;4.75;;;;;9.07;74.44;101502.72;4944795;28;45323;-70
2023/12/14 09:06:36;;;;;;;;;7.00;5.00;;;;;9.12;74.10;101503.56;4944377;28;59882;-70
2023/12/14 09:09:02;;;;;;;;;6.75;5.25;;;;;9.15;74.13;101517.44;4942012;28;66400;-70
2023/12/14 09:11:27;;;;;;;;;6.50;4.75;;;;;9.14;74.07;101519.22;4940891;28;45591;-70
2023/12/14 09:13:53;;;;;;;;;8.50;3.00;;;;;9.12;73.86;101523.59;4940519;28;52484;-70
2023/12/14 09:16:18;;;;;;;;;6.00;4.25;;;;;9.08;73.58;101530.56;4940869;28;45252;-69
2023/12/14 09:18:43;;;;;;;;;6.25;4.00;;;;;9.03;73.55;101531.47;4940726;28;69250;-69
2023/12/14 09:21:09;;;;;;;;;5.75;3.25;;;;;9.04;73.73;101536.69;4939492;28;45415;-69
2023/12/14 09:23:34;;;;;;;;;4.00;2.50;;;;;9.09;74.13;101542.72;4941536;28;47036;-70
2023/12/14 09:25:59;;;;;;;;;5.00;3.00;;;;;9.12;73.72;101547.94;4939233;28;53122;-70
2023/12/14 09:28:26;;;;;;;;;6.50;4.00;;;;;9.14;73.70;101550.53;4940671;28;66014;-69
2023/12/14 09:30:51;;;;;;;;;6.50;3.50;;;;;9.21;73.74;101554.84;4941597;28;45480;-70
2023/12/14 09:33:16;;;;;;;;;3.25;1.75;;;;;9.28;73.70;101553.06;4939615;28;73353;-70
2023/12/14 09:35:42;;;;;;;;;3.25;2.75;;;;;9.30;73.35;101559.13;4942404;28;72000;-70
2023/12/14 09:38:08;;;;;;;;;6.00;4.00;;;;;9.27;73.01;101559.13;4941020;28;45452;-70
2023/12/14 09:40:34;;;;;;;;;5.50;3.75;;;;;9.29;72.95;101560.00;4941620;28;45852;-71
2023/12/14 09:43:00;;;;;;;;;6.00;4.00;;;;;9.34;72.88;101568.66;4947017;28;46950;-75
2023/12/14 09:45:28;;;;;;;;;7.50;5.00;;;;;9.38;72.50;101566.88;4938558;28;45499;-78
2023/12/14 09:47:53;;;;;;;;;7.50;4.00;;;;;9.40;72.70;101570.34;4942352;28;45330;-79
2023/12/14 09:50:20;;;;;;;;;7.50;3.00;;;;;9.41;72.34;101580.78;4937503;28;58136;-74
2023/12/14 09:52:48;;;;;;;;;6.50;3.75;;;;;9.43;71.35;101589.47;4936555;28;45721;-74
2023/12/14 09:55:14;;;;;;;;;5.00;3.75;;;;;9.36;71.56;101592.16;4941550;28;45608;-74
2023/12/14 09:57:39;;;;;;;;;3.75;2.75;;;;;9.30;71.13;101588.72;4935830;28;45433;-75
2023/12/14 10:00:10;;;;;;;;;5.50;2.50;;;;;9.28;71.14;101608.75;4940009;28;58897;-73
2023/12/14 10:02:35;;;;;;;;;4.25;3.50;;;;;9.25;71.20;101600.94;4937242;28;46075;-73
2023/12/14 10:05:01;;;;;;;;;5.50;0.25;;;;;9.24;71.56;101607.06;4944857;28;45445;-73
2023/12/14 10:07:26;;;;;;;;;6.00;3.00;;;;;9.24;71.32;101609.66;4943651;28;45582;-73
2023/12/14 10:09:53;;;;;;;;;9.00;5.00;;;;;9.27;71.29;101620.06;4941035;28;69665;-74
2023/12/14 10:12:19;;;;;;;;;8.25;7.25;;;;;9.26;71.49;101617.47;4939442;28;45775;-74
2023/12/14 10:14:44;;;;;;;;;10.25;4.50;;;;;9.28;71.34;101621.81;4932247;28;45578;-74
2023/12/14 10:17:21;;;;;;;;;6.25;5.25;;;;;9.33;71.31;101627.03;4942758;28;45607;-73
2023/12/14 10:19:47;;;;;;;;;8.50;6.00;;;;;9.37;70.97;101626.09;4944134;28;45497;-74
2023/12/14 10:22:17;;;;;;;;;6.50;4.00;;;;;9.41;70.85;101621.72;4950157;28;46042;-74
2023/12/14 10:24:44;;;;;;;;;5.00;4.75;;;;;9.47;70.76;101621.66;4959476;28;45726;-74
2023/12/14 10:27:11;;;;;;;;;5.75;4.25;;;;;9.54;70.24;101632.94;4942766;28;45525;-74
2023/12/14 10:29:39;;;;;;;;;8.25;5.50;;;;;9.57;70.08;101636.38;4943376;28;45394;-74
2023/12/14 10:32:06;;;;;;;;;6.50;5.00;;;;;9.61;70.14;101640.69;4943185;28;46040;-73
2023/12/14 10:34:35;;;;;;;;;8.75;5.00;;;;;9.66;69.55;101653.75;4943306;28;45477;-74
2023/12/14 10:37:01;;;;;;;;;7.25;4.25;;;;;9.67;69.57;101651.13;4941521;28;45950;-73
2023/12/14 10:39:28;;;;;;;;;7.00;6.00;;;;;9.74;69.46;101653.66;4941939;28;45577;-73
2023/12/14 10:41:57;;;;;;;;;9.50;6.00;;;;;9.78;69.02;101673.69;4941541;28;50226;-74
2023/12/14 10:44:25;;;;;;;;;8.25;5.25;;;;;9.78;68.98;101671.06;4941707;28;45474;-74
2023/12/14 10:46:58;;;;;;;;;8.75;4.25;;;;;9.76;68.76;101668.47;4939341;28;45709;-74
2023/12/14 10:49:27;;;;;;;;;12.25;6.00;;;;;9.79;68.77;101672.78;4943136;28;45397;-74
2023/12/14 10:51:57;;;;;;;;;8.25;4.50;;;;;9.82;68.42;101670.16;4941786;28;46420;-71
2023/12/14 10:54:24;;;;;;;;;9.50;7.00;;;;;9.91;68.78;101666.59;4942489;28;45454;-74
2023/12/14 10:56:49;;;;;;;;;6.00;4.00;;;;;9.99;68.25;101676.09;4941968;28;45501;-74
2023/12/14 10:59:17;;;;;;;;;6.75;5.25;;;;;10.04;68.31;101686.53;4940674;28;73076;-74
2023/12/14 11:01:42;;;;;;;;;8.25;6.00;;;;;10.05;68.39;101683.88;4944238;28;47081;-72
2023/12/14 11:04:13;;;;;;;;;10.25;7.00;;;;;10.09;68.09;101692.56;4945586;28;45339;-73
2023/12/14 11:06:38;;;;;;;;;6.50;5.00;;;;;10.06;68.07;101692.63;4934376;28;45545;-74
2023/12/14 11:09:08;;;;;;;;;13.50;9.00;;;;;10.04;68.27;101697.00;4944572;28;45264;-74
2023/12/14 11:11:46;;;;;;;;;21.00;14.00;;;;;10.02;67.99;101706.56;4952070;28;47082;-73
2023/12/14 11:14:12;;;;;;;;;12.00;10.50;;;;;10.00;68.01;101703.13;4940974;28;45800;-74
2023/12/14 11:16:44;;;;;;;;;5.50;4.50;;;;;9.96;67.68;101702.28;4942565;28;45436;-74
2023/12/14 11:19:21;;;;;;;;;22.75;14.25;;;;;9.94;67.59;101700.56;4943271;28;45576;-74
2023/12/14 11:21:53;;;;;;;;;5.75;5.50;;;;;9.92;67.77;101708.41;4945393;28;45429;-74
2023/12/14 11:24:18;;;;;;;;;9.75;5.25;;;;;9.93;67.73;101711.91;4942550;28;45354;-73